sensor_id;sensor_type;location;lat;lon;timestamp;pressure;altitude;pressure_sealevel;temperature
65738;BMP280;52478;51.844;6.582;2023-11-19T00:01:04;100549.72;;;21.20
65738;BMP280;52478;51.844;6.582;2023-11-19T00:03:31;100548.25;;;21.20
65738;BMP280;52478;51.844;6.582;2023-11-19T00:06:00;100555.31;;;21.20
65738;BMP280;52478;51.844;6.582;2023-11-19T00:08:27;100555.88;;;21.19
65738;BMP280;52478;51.844;6.582;2023-11-19T00:10:54;100548.25;;;21.20
65738;BMP280;52478;51.844;6.582;2023-11-19T00:13:20;100548.47;;;21.22
65738;BMP280;52478;51.844;6.582;2023-11-19T00:15:48;100545.47;;;21.20
65738;BMP280;52478;51.844;6.582;2023-11-19T00:18:15;100534.34;;;21.20
65738;BMP280;52478;51.844;6.582;2023-11-19T00:20:42;100537.34;;;21.22
65738;BMP280;52478;51.844;6.582;2023-11-19T00:23:11;100539.91;;;21.20
65738;BMP280;52478;51.844;6.582;2023-11-19T00:25:37;100539.91;;;21.20
65738;BMP280;52478;51.844;6.582;2023-11-19T00:28:05;100532.31;;;21.20
65738;BMP280;52478;51.844;6.582;2023-11-19T00:30:31;100527.47;;;21.20
65738;BMP280;52478;51.844;6.582;2023-11-19T00:32:58;100522.66;;;21.21
65738;BMP280;52478;51.844;6.582;2023-11-19T00:35:24;100511.53;;;21.21
65738;BMP280;52478;51.844;6.582;2023-11-19T00:37:51;100512.28;;;21.22
65738;BMP280;52478;51.844;6.582;2023-11-19T00:40:20;100501.16;;;21.22
65738;BMP280;52478;51.844;6.582;2023-11-19T00:42:48;100503.94;;;21.22
65738;BMP280;52478;51.844;6.582;2023-11-19T00:45:15;100503.94;;;21.22
65738;BMP280;52478;51.844;6.582;2023-11-19T00:47:42;100497.09;;;21.23
65738;BMP280;52478;51.844;6.582;2023-11-19T00:50:09;100493.03;;;21.23
65738;BMP280;52478;51.844;6.582;2023-11-19T00:52:36;100495.28;;;21.25
65738;BMP280;52478;51.844;6.582;2023-11-19T00:55:03;100485.13;;;21.27
65738;BMP280;52478;51.844;6.582;2023-11-19T00:57:31;100497.22;;;21.30
65738;BMP280;52478;51.844;6.582;2023-11-19T00:59:58;100497.41;;;21.32
65738;BMP280;52478;51.844;6.582;2023-11-19T01:02:25;100499.16;;;21.35
65738;BMP280;52478;51.844;6.582;2023-11-19T01:04:51;100495.84;;;21.36
65738;BMP280;52478;51.844;6.582;2023-11-19T01:07:18;100494.56;;;21.37
65738;BMP280;52478;51.844;6.582;2023-11-19T01:09:44;100496.28;;;21.40
65738;BMP280;52478;51.844;6.582;2023-11-19T01:12:11;100492.66;;;21.45
65738;BMP280;52478;51.844;6.582;2023-11-19T01:14:39;100488.78;;;21.48
65738;BMP280;52478;51.844;6.582;2023-11-19T01:17:06;100479.16;;;21.49
65738;BMP280;52478;51.844;6.582;2023-11-19T01:19:34;100490.50;;;21.51
65738;BMP280;52478;51.844;6.582;2023-11-19T01:22:00;100501.63;;;21.51
65738;BMP280;52478;51.844;6.582;2023-11-19T01:24:27;100489.97;;;21.53
65738;BMP280;52478;51.844;6.582;2023-11-19T01:26:56;100466.19;;;21.52
65738;BMP280;52478;51.844;6.582;2023-11-19T01:29:25;100454.28;;;21.51
65738;BMP280;52478;51.844;6.582;2023-11-19T01:31:53;100441.88;;;21.52
65738;BMP280;52478;51.844;6.582;2023-11-19T01:34:19;100445.94;;;21.51
65738;BMP280;52478;51.844;6.582;2023-11-19T01:36:46;100464.16;;;21.52
65738;BMP280;52478;51.844;6.582;2023-11-19T01:39:14;100466.94;;;21.52
65738;BMP280;52478;51.844;6.582;2023-11-19T01:41:41;100469.72;;;21.52
65738;BMP280;52478;51.844;6.582;2023-11-19T01:44:08;100463.97;;;21.50
65738;BMP280;52478;51.844;6.582;2023-11-19T01:46:35;100459.88;;;21.51
65738;BMP280;52478;51.844;6.582;2023-11-19T01:49:04;100466.75;;;21.50
65738;BMP280;52478;51.844;6.582;2023-11-19T01:51:31;100463.19;;;21.50
65738;BMP280;52478;51.844;6.582;2023-11-19T01:53:58;100465.25;;;21.49
65738;BMP280;52478;51.844;6.582;2023-11-19T01:56:25;100461.69;;;21.49
65738;BMP280;52478;51.844;6.582;2023-11-19T01:58:53;100465.25;;;21.49
65738;BMP280;52478;51.844;6.582;2023-11-19T02:01:21;100470.03;;;21.49
65738;BMP280;52478;51.844;6.582;2023-11-19T02:03:48;100466.50;;;21.48
65738;BMP280;52478;51.844;6.582;2023-11-19T02:06:16;100456.66;;;21.47
65738;BMP280;52478;51.844;6.582;2023-11-19T02:08:43;100455.94;;;21.47
65738;BMP280;52478;51.844;6.582;2023-11-19T02:11:09;100459.97;;;21.46
65738;BMP280;52478;51.844;6.582;2023-11-19T02:13:37;100454.41;;;21.46
65738;BMP280;52478;51.844;6.582;2023-11-19T02:16:05;100446.06;;;21.46
65738;BMP280;52478;51.844;6.582;2023-11-19T02:18:32;100446.59;;;21.44
65738;BMP280;52478;51.844;6.582;2023-11-19T02:20:59;100449.38;;;21.44
65738;BMP280;52478;51.844;6.582;2023-11-19T02:23:27;100447.13;;;21.43
65738;BMP280;52478;51.844;6.582;2023-11-19T02:26:02;100444.34;;;21.43
65738;BMP280;52478;51.844;6.582;2023-11-19T02:28:30;100443.59;;;21.42
65738;BMP280;52478;51.844;6.582;2023-11-19T02:30:58;100435.75;;;21.41
65738;BMP280;52478;51.844;6.582;2023-11-19T02:33:24;100435.75;;;21.41
65738;BMP280;52478;51.844;6.582;2023-11-19T02:35:51;100427.97;;;21.39
65738;BMP280;52478;51.844;6.582;2023-11-19T02:38:17;100429.22;;;21.38
65738;BMP280;52478;51.844;6.582;2023-11-19T02:40:44;100419.38;;;21.37
65738;BMP280;52478;51.844;6.582;2023-11-19T02:43:10;100408.25;;;21.37
65738;BMP280;52478;51.844;6.582;2023-11-19T02:45:39;100422.41;;;21.39
65738;BMP280;52478;51.844;6.582;2023-11-19T02:48:07;100422.94;;;21.38
65738;BMP280;52478;51.844;6.582;2023-11-19T02:50:35;100426.22;;;21.36
65738;BMP280;52478;51.844;6.582;2023-11-19T02:53:02;100419.38;;;21.37
65738;BMP280;52478;51.844;6.582;2023-11-19T02:55:28;100423.44;;;21.36
65738;BMP280;52478;51.844;6.582;2023-11-19T02:57:59;100422.69;;;21.36
65738;BMP280;52478;51.844;6.582;2023-11-19T03:00:26;100414.13;;;21.34
65738;BMP280;52478;51.844;6.582;2023-11-19T03:03:02;100420.44;;;21.34
65738;BMP280;52478;51.844;6.582;2023-11-19T03:05:42;100418.94;;;21.33
65738;BMP280;52478;51.844;6.582;2023-11-19T03:08:10;100423.00;;;21.32
65738;BMP280;52478;51.844;6.582;2023-11-19T03:10:37;100428.38;;;21.30
65738;BMP280;52478;51.844;6.582;2023-11-19T03:13:04;100418.50;;;21.29
65738;BMP280;52478;51.844;6.582;2023-11-19T03:15:31;100429.88;;;21.31
65738;BMP280;52478;51.844;6.582;2023-11-19T03:17:57;100431.16;;;21.30
65738;BMP280;52478;51.844;6.582;2023-11-19T03:20:25;100425.34;;;21.28
65738;BMP280;52478;51.844;6.582;2023-11-19T03:22:53;100435.22;;;21.29
65738;BMP280;52478;51.844;6.582;2023-11-19T03:25:19;100440.78;;;21.29
65738;BMP280;52478;51.844;6.582;2023-11-19T03:27:46;100446.34;;;21.29
65738;BMP280;52478;51.844;6.582;2023-11-19T03:30:12;100441.53;;;21.30
65738;BMP280;52478;51.844;6.582;2023-11-19T03:32:40;100436.75;;;21.30
65738;BMP280;52478;51.844;6.582;2023-11-19T03:35:07;100436.75;;;21.30
65738;BMP280;52478;51.844;6.582;2023-11-19T03:37:35;100436.75;;;21.30
65738;BMP280;52478;51.844;6.582;2023-11-19T03:40:02;100447.88;;;21.30
65738;BMP280;52478;51.844;6.582;2023-11-19T03:42:29;100438.75;;;21.30
65738;BMP280;52478;51.844;6.582;2023-11-19T03:44:56;100431.16;;;21.30
65738;BMP280;52478;51.844;6.582;2023-11-19T03:47:23;100437.47;;;21.31
65738;BMP280;52478;51.844;6.582;2023-11-19T03:49:49;100425.34;;;21.28
65738;BMP280;52478;51.844;6.582;2023-11-19T03:52:16;100432.41;;;21.29
65738;BMP280;52478;51.844;6.582;2023-11-19T03:54:44;100433.72;;;21.28
65738;BMP280;52478;51.844;6.582;2023-11-19T03:57:12;100435.22;;;21.29
65738;BMP280;52478;51.844;6.582;2023-11-19T03:59:40;100426.66;;;21.27
65738;BMP280;52478;51.844;6.582;2023-11-19T04:02:07;100440.03;;;21.29
65738;BMP280;52478;51.844;6.582;2023-11-19T04:04:33;100438.53;;;21.28
65738;BMP280;52478;51.844;6.582;2023-11-19T04:07:00;100448.94;;;21.27
65738;BMP280;52478;51.844;6.582;2023-11-19T04:09:28;100441.31;;;21.28
65738;BMP280;52478;51.844;6.582;2023-11-19T04:11:56;100446.16;;;21.27
65738;BMP280;52478;51.844;6.582;2023-11-19T04:14:22;100455.78;;;21.26
65738;BMP280;52478;51.844;6.582;2023-11-19T04:16:49;100459.31;;;21.27
65738;BMP280;52478;51.844;6.582;2023-11-19T04:19:16;100447.44;;;21.26
65738;BMP280;52478;51.844;6.582;2023-11-19T04:21:42;100450.72;;;21.25
65738;BMP280;52478;51.844;6.582;2023-11-19T04:24:10;100443.13;;;21.25
65738;BMP280;52478;51.844;6.582;2023-11-19T04:26:40;100431.97;;;21.25
65738;BMP280;52478;51.844;6.582;2023-11-19T04:29:09;100439.59;;;21.25
65738;BMP280;52478;51.844;6.582;2023-11-19T04:31:36;100445.91;;;21.25
65738;BMP280;52478;51.844;6.582;2023-11-19T04:34:03;100435.84;;;21.23
65738;BMP280;52478;51.844;6.582;2023-11-19T04:36:29;100455.53;;;21.24
65738;BMP280;52478;51.844;6.582;2023-11-19T04:38:56;100448.50;;;21.23
65738;BMP280;52478;51.844;6.582;2023-11-19T04:41:22;100455.53;;;21.24
65738;BMP280;52478;51.844;6.582;2023-11-19T04:43:49;100454.25;;;21.25
65738;BMP280;52478;51.844;6.582;2023-11-19T04:46:16;100458.84;;;21.23
65738;BMP280;52478;51.844;6.582;2023-11-19T04:48:44;100465.19;;;21.23
65738;BMP280;52478;51.844;6.582;2023-11-19T04:51:11;100467.22;;;21.23
65738;BMP280;52478;51.844;6.582;2023-11-19T04:53:38;100465.94;;;21.24
65738;BMP280;52478;51.844;6.582;2023-11-19T04:56:07;100474.06;;;21.22
65738;BMP280;52478;51.844;6.582;2023-11-19T04:58:34;100461.97;;;21.20
65738;BMP280;52478;51.844;6.582;2023-11-19T05:01:01;100462.72;;;21.20
65738;BMP280;52478;51.844;6.582;2023-11-19T05:03:29;100457.16;;;21.20
65738;BMP280;52478;51.844;6.582;2023-11-19T05:05:56;100456.63;;;21.22
65738;BMP280;52478;51.844;6.582;2023-11-19T05:08:23;100453.84;;;21.22
65738;BMP280;52478;51.844;6.582;2023-11-19T05:10:49;100467.00;;;21.21
65738;BMP280;52478;51.844;6.582;2023-11-19T05:13:16;100471.09;;;21.20
65738;BMP280;52478;51.844;6.582;2023-11-19T05:15:42;100468.81;;;21.19
65738;BMP280;52478;51.844;6.582;2023-11-19T05:18:09;100466.03;;;21.19
65738;BMP280;52478;51.844;6.582;2023-11-19T05:20:37;100469.00;;;21.20
65738;BMP280;52478;51.844;6.582;2023-11-19T05:23:03;100468.31;;;21.20
65738;BMP280;52478;51.844;6.582;2023-11-19T05:25:30;100460.66;;;21.20
65738;BMP280;52478;51.844;6.582;2023-11-19T05:27:56;100470.31;;;21.20
65738;BMP280;52478;51.844;6.582;2023-11-19T05:30:23;100466.22;;;21.20
65738;BMP280;52478;51.844;6.582;2023-11-19T05:32:49;100459.94;;;21.20
65738;BMP280;52478;51.844;6.582;2023-11-19T05:35:16;100464.00;;;21.19
65738;BMP280;52478;51.844;6.582;2023-11-19T05:37:43;100470.31;;;21.20
65738;BMP280;52478;51.844;6.582;2023-11-19T05:40:10;100463.75;;;21.17
65738;BMP280;52478;51.844;6.582;2023-11-19T05:42:39;100463.25;;;21.19
65738;BMP280;52478;51.844;6.582;2023-11-19T05:45:07;100468.06;;;21.18
65738;BMP280;52478;51.844;6.582;2023-11-19T05:47:34;100456.91;;;21.18
65738;BMP280;52478;51.844;6.582;2023-11-19T05:50:00;100475.66;;;21.18
65738;BMP280;52478;51.844;6.582;2023-11-19T05:52:27;100474.13;;;21.17
65738;BMP280;52478;51.844;6.582;2023-11-19T05:54:59;100488.06;;;21.17
65738;BMP280;52478;51.844;6.582;2023-11-19T05:57:29;100476.91;;;21.17
65738;BMP280;52478;51.844;6.582;2023-11-19T05:59:55;100482.47;;;21.17
65738;BMP280;52478;51.844;6.582;2023-11-19T06:02:22;100476.91;;;21.17
65738;BMP280;52478;51.844;6.582;2023-11-19T06:04:48;100489.59;;;21.18
65738;BMP280;52478;51.844;6.582;2023-11-19T06:07:15;100493.63;;;21.17
65738;BMP280;52478;51.844;6.582;2023-11-19T06:09:41;100489.38;;;21.16
65738;BMP280;52478;51.844;6.582;2023-11-19T06:12:09;100483.06;;;21.15
65738;BMP280;52478;51.844;6.582;2023-11-19T06:14:36;100488.81;;;21.17
65738;BMP280;52478;51.844;6.582;2023-11-19T06:17:02;100483.78;;;21.16
65738;BMP280;52478;51.844;6.582;2023-11-19T06:19:30;100483.78;;;21.16
65738;BMP280;52478;51.844;6.582;2023-11-19T06:21:56;100480.28;;;21.15
65738;BMP280;52478;51.844;6.582;2023-11-19T06:24:23;100480.28;;;21.15
65738;BMP280;52478;51.844;6.582;2023-11-19T06:26:49;100488.63;;;21.15
65738;BMP280;52478;51.844;6.582;2023-11-19T06:29:17;100501.00;;;21.14
65738;BMP280;52478;51.844;6.582;2023-11-19T06:31:44;100500.28;;;21.14
65738;BMP280;52478;51.844;6.582;2023-11-19T06:34:11;100501.78;;;21.15
65738;BMP280;52478;51.844;6.582;2023-11-19T06:36:38;100513.69;;;21.15
65738;BMP280;52478;51.844;6.582;2023-11-19T06:39:05;100499.75;;;21.15
65738;BMP280;52478;51.844;6.582;2023-11-19T06:41:32;100518.47;;;21.15
65738;BMP280;52478;51.844;6.582;2023-11-19T06:43:58;100512.91;;;21.15
65738;BMP280;52478;51.844;6.582;2023-11-19T06:46:26;100515.47;;;21.13
65738;BMP280;52478;51.844;6.582;2023-11-19T06:48:53;100514.72;;;21.12
65738;BMP280;52478;51.844;6.582;2023-11-19T06:51:19;100515.47;;;21.13
65738;BMP280;52478;51.844;6.582;2023-11-19T06:53:46;100519.75;;;21.14
65738;BMP280;52478;51.844;6.582;2023-11-19T06:56:20;100519.75;;;21.14
65738;BMP280;52478;51.844;6.582;2023-11-19T06:58:46;100524.56;;;21.13
65738;BMP280;52478;51.844;6.582;2023-11-19T07:01:13;100515.47;;;21.13
65738;BMP280;52478;51.844;6.582;2023-11-19T07:03:41;100511.72;;;21.10
65738;BMP280;52478;51.844;6.582;2023-11-19T07:06:08;100508.41;;;21.12
65738;BMP280;52478;51.844;6.582;2023-11-19T07:08:34;100502.28;;;21.13
65738;BMP280;52478;51.844;6.582;2023-11-19T07:11:01;100514.19;;;21.14
65738;BMP280;52478;51.844;6.582;2023-11-19T07:13:28;100508.84;;;21.16
65738;BMP280;52478;51.844;6.582;2023-11-19T07:15:55;100518.66;;;21.17
65738;BMP280;52478;51.844;6.582;2023-11-19T07:18:22;100515.88;;;21.17
65738;BMP280;52478;51.844;6.582;2023-11-19T07:20:50;100512.59;;;21.18
65738;BMP280;52478;51.844;6.582;2023-11-19T07:23:17;100520.19;;;21.18
65738;BMP280;52478;51.844;6.582;2023-11-19T07:25:43;100518.91;;;21.19
65738;BMP280;52478;51.844;6.582;2023-11-19T07:28:12;100531.56;;;21.20
65738;BMP280;52478;51.844;6.582;2023-11-19T07:30:38;100531.56;;;21.20
65738;BMP280;52478;51.844;6.582;2023-11-19T07:33:05;100532.31;;;21.20
65738;BMP280;52478;51.844;6.582;2023-11-19T07:35:32;100534.34;;;21.20
65738;BMP280;52478;51.844;6.582;2023-11-19T07:37:59;100538.59;;;21.20
65738;BMP280;52478;51.844;6.582;2023-11-19T07:40:26;100545.69;;;21.22
65738;BMP280;52478;51.844;6.582;2023-11-19T07:42:52;100556.84;;;21.22
65738;BMP280;52478;51.844;6.582;2023-11-19T07:45:19;100556.28;;;21.23
65738;BMP280;52478;51.844;6.582;2023-11-19T07:47:45;100559.84;;;21.23
65738;BMP280;52478;51.844;6.582;2023-11-19T07:50:12;100568.38;;;21.25
65738;BMP280;52478;51.844;6.582;2023-11-19T07:52:42;100576.00;;;21.25
65738;BMP280;52478;51.844;6.582;2023-11-19T07:55:09;100562.81;;;21.25
65738;BMP280;52478;51.844;6.582;2023-11-19T07:57:37;100553.72;;;21.25
65738;BMP280;52478;51.844;6.582;2023-11-19T08:00:04;100563.59;;;21.26
65738;BMP280;52478;51.844;6.582;2023-11-19T08:02:31;100571.16;;;21.25
65738;BMP280;52478;51.844;6.582;2023-11-19T08:04:58;100575.50;;;21.26
65738;BMP280;52478;51.844;6.582;2023-11-19T08:07:25;100574.22;;;21.27
65738;BMP280;52478;51.844;6.582;2023-11-19T08:09:52;100571.94;;;21.26
65738;BMP280;52478;51.844;6.582;2023-11-19T08:12:19;100572.91;;;21.28
65738;BMP280;52478;51.844;6.582;2023-11-19T08:14:46;100579.78;;;21.27
65738;BMP280;52478;51.844;6.582;2023-11-19T08:17:12;100588.13;;;21.27
65738;BMP280;52478;51.844;6.582;2023-11-19T08:19:39;100593.69;;;21.27
65738;BMP280;52478;51.844;6.582;2023-11-19T08:22:05;100577.00;;;21.27
65738;BMP280;52478;51.844;6.582;2023-11-19T08:24:32;100584.03;;;21.28
65738;BMP280;52478;51.844;6.582;2023-11-19T08:26:58;100582.56;;;21.27
65738;BMP280;52478;51.844;6.582;2023-11-19T08:29:26;100571.63;;;21.29
65738;BMP280;52478;51.844;6.582;2023-11-19T08:31:53;100583.00;;;21.31
65738;BMP280;52478;51.844;6.582;2023-11-19T08:34:20;100578.16;;;21.32
65738;BMP280;52478;51.844;6.582;2023-11-19T08:36:49;100572.31;;;21.35
65738;BMP280;52478;51.844;6.582;2023-11-19T08:39:18;100577.31;;;21.37
65738;BMP280;52478;51.844;6.582;2023-11-19T08:41:45;100578.75;;;21.43
65738;BMP280;52478;51.844;6.582;2023-11-19T08:44:11;100570.63;;;21.45
65738;BMP280;52478;51.844;6.582;2023-11-19T08:46:46;100577.69;;;21.46
65738;BMP280;52478;51.844;6.582;2023-11-19T08:49:13;100578.97;;;21.45
65738;BMP280;52478;51.844;6.582;2023-11-19T08:51:39;100581.53;;;21.43
65738;BMP280;52478;51.844;6.582;2023-11-19T08:54:06;100578.03;;;21.43
65738;BMP280;52478;51.844;6.582;2023-11-19T08:56:33;100584.88;;;21.42
65738;BMP280;52478;51.844;6.582;2023-11-19T08:59:00;100576.50;;;21.42
65738;BMP280;52478;51.844;6.582;2023-11-19T09:01:27;100584.31;;;21.43
65738;BMP280;52478;51.844;6.582;2023-11-19T09:03:55;100591.41;;;21.44
65738;BMP280;52478;51.844;6.582;2023-11-19T09:06:22;100591.41;;;21.44
65738;BMP280;52478;51.844;6.582;2023-11-19T09:08:49;100583.03;;;21.44
65738;BMP280;52478;51.844;6.582;2023-11-19T09:11:16;100581.75;;;21.45
65738;BMP280;52478;51.844;6.582;2023-11-19T09:13:43;100581.75;;;21.45
65738;BMP280;52478;51.844;6.582;2023-11-19T09:16:11;100585.50;;;21.48
65738;BMP280;52478;51.844;6.582;2023-11-19T09:18:38;100583.25;;;21.46
65738;BMP280;52478;51.844;6.582;2023-11-19T09:21:06;100581.97;;;21.47
65738;BMP280;52478;51.844;6.582;2023-11-19T09:23:32;100580.47;;;21.46
65738;BMP280;52478;51.844;6.582;2023-11-19T09:26:04;100582.50;;;21.46
65738;BMP280;52478;51.844;6.582;2023-11-19T09:28:31;100581.75;;;21.45
65738;BMP280;52478;51.844;6.582;2023-11-19T09:30:58;100583.25;;;21.46
65738;BMP280;52478;51.844;6.582;2023-11-19T09:33:24;100588.84;;;21.46
65738;BMP280;52478;51.844;6.582;2023-11-19T09:35:51;100583.25;;;21.46
65738;BMP280;52478;51.844;6.582;2023-11-19T09:38:19;100593.63;;;21.46
65738;BMP280;52478;51.844;6.582;2023-11-19T09:40:46;100583.25;;;21.46
65738;BMP280;52478;51.844;6.582;2023-11-19T09:43:13;100583.25;;;21.46
65738;BMP280;52478;51.844;6.582;2023-11-19T09:45:48;100589.59;;;21.47
65738;BMP280;52478;51.844;6.582;2023-11-19T09:48:16;100591.63;;;21.46
65738;BMP280;52478;51.844;6.582;2023-11-19T09:50:44;100588.84;;;21.46
65738;BMP280;52478;51.844;6.582;2023-11-19T09:53:11;100597.19;;;21.46
65738;BMP280;52478;51.844;6.582;2023-11-19T09:55:39;100583.25;;;21.46
65738;BMP280;52478;51.844;6.582;2023-11-19T09:58:06;100584.03;;;21.47
65738;BMP280;52478;51.844;6.582;2023-11-19T10:00:34;100576.38;;;21.47
65738;BMP280;52478;51.844;6.582;2023-11-19T10:03:00;100580.69;;;21.48
65738;BMP280;52478;51.844;6.582;2023-11-19T10:05:30;100577.16;;;21.48
65738;BMP280;52478;51.844;6.582;2023-11-19T10:07:57;100577.91;;;21.48
65738;BMP280;52478;51.844;6.582;2023-11-19T10:10:23;100579.19;;;21.47
65738;BMP280;52478;51.844;6.582;2023-11-19T10:12:52;100572.31;;;21.48
65738;BMP280;52478;51.844;6.582;2023-11-19T10:15:20;100573.09;;;21.49
65738;BMP280;52478;51.844;6.582;2023-11-19T10:17:47;100575.09;;;21.48
65738;BMP280;52478;51.844;6.582;2023-11-19T10:20:14;100567.00;;;21.50
65738;BMP280;52478;51.844;6.582;2023-11-19T10:22:40;100579.63;;;21.51
65738;BMP280;52478;51.844;6.582;2023-11-19T10:25:21;100564.41;;;21.52
65738;BMP280;52478;51.844;6.582;2023-11-19T10:27:48;100569.97;;;21.52
65738;BMP280;52478;51.844;6.582;2023-11-19T10:30:20;100546.19;;;21.51
65738;BMP280;52478;51.844;6.582;2023-11-19T10:33:02;100554.09;;;21.47
65738;BMP280;52478;51.844;6.582;2023-11-19T10:35:29;100569.97;;;21.52
65738;BMP280;52478;51.844;6.582;2023-11-19T10:37:56;100553.28;;;21.52
65738;BMP280;52478;51.844;6.582;2023-11-19T10:40:37;100553.28;;;21.52
65738;BMP280;52478;51.844;6.582;2023-11-19T10:43:05;100546.97;;;21.52
65738;BMP280;52478;51.844;6.582;2023-11-19T10:45:34;100551.06;;;21.51
65738;BMP280;52478;51.844;6.582;2023-11-19T10:48:01;100551.78;;;21.51
65738;BMP280;52478;51.844;6.582;2023-11-19T10:50:29;100553.84;;;21.51
65738;BMP280;52478;51.844;6.582;2023-11-19T10:52:57;100557.34;;;21.51
65738;BMP280;52478;51.844;6.582;2023-11-19T10:55:27;100566.69;;;21.54
65738;BMP280;52478;51.844;6.582;2023-11-19T10:57:58;100554.81;;;21.53
65738;BMP280;52478;51.844;6.582;2023-11-19T11:00:26;100551.69;;;21.57
65738;BMP280;52478;51.844;6.582;2023-11-19T11:03:00;100552.44;;;21.57
65738;BMP280;52478;51.844;6.582;2023-11-19T11:05:26;100548.16;;;21.56
65738;BMP280;52478;51.844;6.582;2023-11-19T11:07:55;100544.63;;;21.56
65738;BMP280;52478;51.844;6.582;2023-11-19T11:10:25;100543.84;;;21.55
65738;BMP280;52478;51.844;6.582;2023-11-19T11:12:52;100541.06;;;21.55
65738;BMP280;52478;51.844;6.582;2023-11-19T11:15:26;100545.91;;;21.55
65738;BMP280;52478;51.844;6.582;2023-11-19T11:17:59;100547.41;;;21.56
65738;BMP280;52478;51.844;6.582;2023-11-19T11:20:27;100546.66;;;21.55
65738;BMP280;52478;51.844;6.582;2023-11-19T11:23:04;100541.06;;;21.55
65738;BMP280;52478;51.844;6.582;2023-11-19T11:25:40;100535.50;;;21.55
65738;BMP280;52478;51.844;6.582;2023-11-19T11:28:20;100527.38;;;21.57
65738;BMP280;52478;51.844;6.582;2023-11-19T11:31:07;100535.22;;;21.59
65738;BMP280;52478;51.844;6.582;2023-11-19T11:33:44;100536.38;;;21.63
65738;BMP280;52478;51.844;6.582;2023-11-19T11:36:21;100513.47;;;21.70
65738;BMP280;52478;51.844;6.582;2023-11-19T11:38:49;100526.00;;;21.77
65738;BMP280;52478;51.844;6.582;2023-11-19T11:41:16;100522.16;;;21.80
65738;BMP280;52478;51.844;6.582;2023-11-19T11:43:44;100525.06;;;21.74
65738;BMP280;52478;51.844;6.582;2023-11-19T11:49:26;100518.06;;;21.68
65738;BMP280;52478;51.844;6.582;2023-11-19T11:52:01;100518.59;;;21.66
65738;BMP280;52478;51.844;6.582;2023-11-19T11:54:29;100518.06;;;21.68
65738;BMP280;52478;51.844;6.582;2023-11-19T11:57:16;100498.69;;;21.62
65738;BMP280;52478;51.844;6.582;2023-11-19T11:59:46;100507.47;;;21.66
65738;BMP280;52478;51.844;6.582;2023-11-19T12:02:13;100501.91;;;21.66
65738;BMP280;52478;51.844;6.582;2023-11-19T12:04:43;100506.41;;;21.69
65738;BMP280;52478;51.844;6.582;2023-11-19T12:07:14;100507.59;;;21.74
65738;BMP280;52478;51.844;6.582;2023-11-19T12:09:41;100498.16;;;21.77
65738;BMP280;52478;51.844;6.582;2023-11-19T12:12:12;100495.69;;;21.73
65738;BMP280;52478;51.844;6.582;2023-11-19T12:14:59;100494.19;;;21.72
65738;BMP280;52478;51.844;6.582;2023-11-19T12:17:47;100487.13;;;21.71
65738;BMP280;52478;51.844;6.582;2023-11-19T12:20:19;100492.47;;;21.69
65738;BMP280;52478;51.844;6.582;2023-11-19T12:22:47;100487.66;;;21.70
65738;BMP280;52478;51.844;6.582;2023-11-19T12:25:15;100481.34;;;21.69
65738;BMP280;52478;51.844;6.582;2023-11-19T12:27:44;100486.69;;;21.67
65738;BMP280;52478;51.844;6.582;2023-11-19T12:30:10;100477.03;;;21.68
65738;BMP280;52478;51.844;6.582;2023-11-19T12:32:40;100474.03;;;21.66
65738;BMP280;52478;51.844;6.582;2023-11-19T12:35:08;100474.78;;;21.67
65738;BMP280;52478;51.844;6.582;2023-11-19T12:37:42;100471.47;;;21.68
65738;BMP280;52478;51.844;6.582;2023-11-19T12:40:13;100471.47;;;21.68
65738;BMP280;52478;51.844;6.582;2023-11-19T12:42:40;100468.47;;;21.66
65738;BMP280;52478;51.844;6.582;2023-11-19T12:45:08;100477.03;;;21.68
65738;BMP280;52478;51.844;6.582;2023-11-19T12:47:36;100482.63;;;21.68
65738;BMP280;52478;51.844;6.582;2023-11-19T12:50:03;100489.13;;;21.71
65738;BMP280;52478;51.844;6.582;2023-11-19T12:52:30;100483.47;;;21.76
65738;BMP280;52478;51.844;6.582;2023-11-19T12:54:59;100489.78;;;21.77
65738;BMP280;52478;51.844;6.582;2023-11-19T12:57:39;100480.69;;;21.76
65738;BMP280;52478;51.844;6.582;2023-11-19T13:00:07;100477.16;;;21.76
65738;BMP280;52478;51.844;6.582;2023-11-19T13:02:45;100484.56;;;21.73
65738;BMP280;52478;51.844;6.582;2023-11-19T13:05:23;100479.94;;;21.76
65738;BMP280;52478;51.844;6.582;2023-11-19T13:07:51;100498.66;;;21.75
65738;BMP280;52478;51.844;6.582;2023-11-19T13:10:19;100497.41;;;21.76
65738;BMP280;52478;51.844;6.582;2023-11-19T13:13:00;100503.41;;;21.93
65738;BMP280;52478;51.844;6.582;2023-11-19T13:15:26;100490.75;;;21.92
65738;BMP280;52478;51.844;6.582;2023-11-19T13:17:53;100486.78;;;22.01
65738;BMP280;52478;51.844;6.582;2023-11-19T13:20:20;100499.53;;;22.09
65738;BMP280;52478;51.844;6.582;2023-11-19T13:22:57;100493.44;;;22.11
65738;BMP280;52478;51.844;6.582;2023-11-19T13:25:25;100507.81;;;22.15
65738;BMP280;52478;51.844;6.582;2023-11-19T13:27:53;100486.69;;;22.19
65738;BMP280;52478;51.844;6.582;2023-11-19T13:30:20;100483.34;;;22.21
65738;BMP280;52478;51.844;6.582;2023-11-19T13:32:47;100477.97;;;22.23
65738;BMP280;52478;51.844;6.582;2023-11-19T13:35:14;100484.06;;;22.21
65738;BMP280;52478;51.844;6.582;2023-11-19T13:37:42;100478.31;;;22.19
65738;BMP280;52478;51.844;6.582;2023-11-19T13:40:10;100472.09;;;22.13
65738;BMP280;52478;51.844;6.582;2023-11-19T13:42:40;100480.91;;;22.04
65738;BMP280;52478;51.844;6.582;2023-11-19T13:45:08;100483.28;;;22.00
65738;BMP280;52478;51.844;6.582;2023-11-19T13:47:38;100483.03;;;21.98
65738;BMP280;52478;51.844;6.582;2023-11-19T13:50:08;100473.50;;;21.94
65738;BMP280;52478;51.844;6.582;2023-11-19T13:52:35;100471.88;;;21.98
65738;BMP280;52478;51.844;6.582;2023-11-19T13:55:04;100464.09;;;21.97
65738;BMP280;52478;51.844;6.582;2023-11-19T13:57:31;100467.41;;;21.95
65738;BMP280;52478;51.844;6.582;2023-11-19T13:59:59;100463.22;;;21.89
65738;BMP280;52478;51.844;6.582;2023-11-19T14:02:26;100471.78;;;21.91
65738;BMP280;52478;51.844;6.582;2023-11-19T14:04:51;100465.47;;;21.90